createdAt,value
2018-06-20T00:01:17.366Z,100233.00
2018-06-20T00:03:21.758Z,100223.00
2018-06-20T00:05:26.213Z,100226.00
2018-06-20T00:07:30.643Z,100217.00
2018-06-20T00:09:35.062Z,100210.00
2018-06-20T00:11:39.510Z,100208.00
2018-06-20T00:13:43.948Z,100213.00
2018-06-20T00:15:48.370Z,100208.00
2018-06-20T00:17:52.745Z,100211.00
2018-06-20T00:19:57.132Z,100201.00
2018-06-20T00:22:01.630Z,100204.00
2018-06-20T00:24:06.090Z,100194.00
2018-06-20T00:26:10.523Z,100194.00
2018-06-20T00:28:14.913Z,100199.00
2018-06-20T00:30:19.334Z,100193.00
2018-06-20T00:32:23.702Z,100198.00
2018-06-20T00:34:28.107Z,100188.00
2018-06-20T00:36:32.529Z,100189.00
2018-06-20T00:38:36.915Z,100185.00
2018-06-20T00:40:41.340Z,100191.00
2018-06-20T00:42:45.739Z,100188.00
2018-06-20T00:44:50.154Z,100186.00
2018-06-20T00:46:54.636Z,100195.00
2018-06-20T00:48:59.047Z,100189.00
2018-06-20T00:51:03.695Z,100192.00
2018-06-20T00:53:08.138Z,100193.00
2018-06-20T00:55:12.625Z,100186.00
2018-06-20T00:57:17.040Z,100188.00
2018-06-20T00:59:21.422Z,100187.00
2018-06-20T01:01:28.718Z,100188.00
2018-06-20T01:03:36.166Z,100183.00
2018-06-20T01:05:42.601Z,100183.00
2018-06-20T01:07:50.224Z,100180.00
2018-06-20T01:09:57.873Z,100181.00
2018-06-20T01:12:05.235Z,100182.00
2018-06-20T01:14:12.240Z,100182.00
2018-06-20T01:16:19.230Z,100184.00
2018-06-20T01:18:26.822Z,100190.00
2018-06-20T01:20:33.522Z,100179.00
2018-06-20T01:22:39.509Z,100181.00
2018-06-20T01:24:45.357Z,100174.00
2018-06-20T01:26:51.413Z,100175.00
2018-06-20T01:28:58.982Z,100182.00
2018-06-20T01:31:07.038Z,100173.00
2018-06-20T01:33:12.466Z,100178.00
2018-06-20T01:35:17.890Z,100170.00
2018-06-20T01:37:25.527Z,100175.00
2018-06-20T01:39:30.792Z,100173.00
2018-06-20T01:41:37.810Z,100160.00
2018-06-20T01:43:43.464Z,100167.00
2018-06-20T01:45:50.037Z,100176.00
2018-06-20T01:47:56.633Z,100172.00
2018-06-20T01:50:04.071Z,100166.00
2018-06-20T01:52:11.872Z,100170.00
2018-06-20T01:54:18.395Z,100163.00
2018-06-20T01:56:26.086Z,100165.00
2018-06-20T01:58:31.738Z,100171.00
2018-06-20T02:00:36.263Z,100176.00
2018-06-20T02:02:40.666Z,100173.00
2018-06-20T02:04:45.240Z,100166.00
2018-06-20T02:06:51.071Z,100167.00
2018-06-20T02:08:58.979Z,100162.00
2018-06-20T02:11:05.891Z,100164.00
2018-06-20T02:13:12.170Z,100162.00
2018-06-20T02:15:18.331Z,100161.00
2018-06-20T02:17:23.740Z,100165.00
2018-06-20T02:19:29.843Z,100159.00
2018-06-20T02:21:36.378Z,100154.00
2018-06-20T02:23:40.828Z,100147.00
2018-06-20T02:25:45.097Z,100157.00
2018-06-20T02:27:49.490Z,100154.00
2018-06-20T02:29:53.943Z,100146.00
2018-06-20T02:31:58.407Z,100161.00
2018-06-20T02:34:02.523Z,100148.00
2018-06-20T02:36:12.228Z,100151.00
2018-06-20T02:38:16.653Z,100147.00
2018-06-20T02:40:21.126Z,100149.00
2018-06-20T02:42:25.563Z,100146.00
2018-06-20T02:44:30.020Z,100145.00
2018-06-20T02:46:34.802Z,100150.00
2018-06-20T02:48:39.246Z,100137.00
2018-06-20T02:50:43.683Z,100124.00
2018-06-20T02:52:48.212Z,100125.00
2018-06-20T02:54:52.594Z,100124.00
2018-06-20T02:56:57.010Z,100133.00
2018-06-20T02:59:01.436Z,100135.00
2018-06-20T03:01:06.287Z,100131.00
2018-06-20T03:03:10.671Z,100125.00
2018-06-20T03:05:15.111Z,100126.00
2018-06-20T03:07:19.538Z,100128.00
2018-06-20T03:09:29.215Z,100124.00
2018-06-20T03:11:33.700Z,100123.00
2018-06-20T03:13:38.112Z,100116.00
2018-06-20T03:15:42.567Z,100119.00
2018-06-20T03:17:46.988Z,100115.00
2018-06-20T03:19:51.444Z,100114.00
2018-06-20T03:21:55.931Z,100121.00
2018-06-20T03:24:00.382Z,100115.00
2018-06-20T03:26:05.959Z,100118.00
2018-06-20T03:28:10.438Z,100115.00
2018-06-20T03:30:14.843Z,100125.00
2018-06-20T03:32:19.330Z,100123.00
2018-06-20T03:34:23.774Z,100120.00
2018-06-20T03:36:28.251Z,100122.00
2018-06-20T03:38:32.699Z,100118.00
2018-06-20T03:40:37.341Z,100115.00
2018-06-20T03:42:41.751Z,100120.00
2018-06-20T03:44:46.187Z,100115.00
2018-06-20T03:46:50.658Z,100105.00
2018-06-20T03:48:55.211Z,100116.00
2018-06-20T03:50:59.641Z,100109.00
2018-06-20T03:53:04.099Z,100106.00
2018-06-20T03:55:08.521Z,100110.00
2018-06-20T03:57:12.979Z,100115.00
2018-06-20T03:59:17.439Z,100117.00
2018-06-20T04:01:22.976Z,100106.00
2018-06-20T04:03:27.750Z,100106.00
2018-06-20T04:05:33.446Z,100107.00
2018-06-20T04:07:40.111Z,100101.00
2018-06-20T04:09:46.981Z,100104.00
2018-06-20T04:11:53.370Z,100103.00
2018-06-20T04:13:59.889Z,100105.00
2018-06-20T04:16:05.054Z,100102.00
2018-06-20T04:18:11.150Z,100100.00
2018-06-20T04:20:18.076Z,100098.00
2018-06-20T04:22:22.685Z,100097.00
2018-06-20T04:24:27.211Z,100103.00
2018-06-20T04:26:31.723Z,100094.00
2018-06-20T04:28:36.480Z,100094.00
2018-06-20T04:30:40.936Z,100090.00
2018-06-20T04:32:46.249Z,100096.00
2018-06-20T04:34:50.646Z,100095.00
2018-06-20T04:36:55.267Z,100094.00
2018-06-20T04:38:59.699Z,100101.00
2018-06-20T04:41:04.190Z,100100.00
2018-06-20T04:43:08.641Z,100099.00
2018-06-20T04:45:13.078Z,100100.00
2018-06-20T04:47:17.555Z,100100.00
2018-06-20T04:49:22.624Z,100099.00
2018-06-20T04:51:27.111Z,100102.00
2018-06-20T04:53:31.684Z,100091.00
2018-06-20T04:55:36.117Z,100094.00
2018-06-20T04:57:40.599Z,100091.00
2018-06-20T04:59:45.011Z,100097.00
2018-06-20T05:01:49.852Z,100091.00
2018-06-20T05:03:54.630Z,100093.00
2018-06-20T05:05:59.071Z,100086.00
2018-06-20T05:08:03.605Z,100087.00
2018-06-20T05:10:08.156Z,100085.00
2018-06-20T05:12:12.334Z,100080.00
2018-06-20T05:14:17.057Z,100090.00
2018-06-20T05:16:21.501Z,100088.00
2018-06-20T05:18:26.967Z,100085.00
2018-06-20T05:20:31.420Z,100084.00
2018-06-20T05:22:36.122Z,100092.00
2018-06-20T05:24:40.519Z,100090.00
2018-06-20T05:26:45.019Z,100093.00
2018-06-20T05:28:49.486Z,100081.00
2018-06-20T05:30:56.844Z,100079.00
2018-06-20T05:33:01.521Z,100080.00
2018-06-20T05:35:07.085Z,100079.00
2018-06-20T05:37:11.559Z,100078.00
2018-06-20T05:39:16.015Z,100087.00
2018-06-20T05:41:20.471Z,100082.00
2018-06-20T05:43:24.934Z,100089.00
2018-06-20T05:45:29.346Z,100083.00
2018-06-20T05:47:33.783Z,100080.00
2018-06-20T05:49:38.254Z,100085.00
2018-06-20T05:51:42.720Z,100081.00
2018-06-20T05:53:47.116Z,100091.00
2018-06-20T05:55:51.504Z,100083.00
2018-06-20T05:57:55.979Z,100078.00
2018-06-20T06:00:00.436Z,100074.00
2018-06-20T06:02:05.525Z,100081.00
2018-06-20T06:04:09.971Z,100074.00
2018-06-20T06:06:16.183Z,100082.00
2018-06-20T06:08:20.660Z,100067.00
2018-06-20T06:10:25.107Z,100069.00
2018-06-20T06:12:30.235Z,100073.00
2018-06-20T06:14:34.668Z,100067.00
2018-06-20T06:16:39.099Z,100077.00
2018-06-20T06:18:43.595Z,100073.00
2018-06-20T06:20:47.801Z,100074.00
2018-06-20T06:22:52.326Z,100073.00
2018-06-20T06:24:56.775Z,100067.00
2018-06-20T06:27:05.653Z,100073.00
2018-06-20T06:29:10.493Z,100064.00
2018-06-20T06:31:15.002Z,100076.00
2018-06-20T06:33:19.465Z,100074.00
2018-06-20T06:35:23.883Z,100076.00
2018-06-20T06:37:28.360Z,100076.00
2018-06-20T06:39:33.420Z,100075.00
2018-06-20T06:41:37.951Z,100073.00
2018-06-20T06:43:42.426Z,100086.00
2018-06-20T06:45:47.994Z,100074.00
2018-06-20T06:47:55.801Z,100073.00
2018-06-20T06:50:02.501Z,100078.00
2018-06-20T06:52:08.693Z,100069.00
2018-06-20T06:54:15.351Z,100078.00
2018-06-20T06:56:20.610Z,100073.00
2018-06-20T06:58:28.598Z,100067.00
2018-06-20T07:00:36.556Z,100057.00
2018-06-20T07:02:44.711Z,100064.00
2018-06-20T07:04:49.151Z,100066.00
2018-06-20T07:06:53.542Z,100070.00
2018-06-20T07:08:58.020Z,100058.00
2018-06-20T07:11:02.110Z,100064.00
2018-06-20T07:13:06.539Z,100068.00
2018-06-20T07:15:11.065Z,100069.00
2018-06-20T07:17:15.545Z,100061.00
2018-06-20T07:19:20.002Z,100078.00
2018-06-20T07:21:24.374Z,100068.00
2018-06-20T07:23:28.943Z,100081.00
2018-06-20T07:25:33.358Z,100073.00
2018-06-20T07:27:37.795Z,100075.00
2018-06-20T07:29:42.319Z,100065.00
2018-06-20T07:31:46.895Z,100075.00
2018-06-20T07:33:51.350Z,100063.00
2018-06-20T07:35:55.947Z,100062.00
2018-06-20T07:38:00.322Z,100060.00
2018-06-20T07:40:04.756Z,100070.00
2018-06-20T07:42:09.179Z,100063.00
2018-06-20T07:44:13.638Z,100058.00
2018-06-20T07:46:18.357Z,100063.00
2018-06-20T07:48:22.750Z,100069.00
2018-06-20T07:50:28.028Z,100073.00
2018-06-20T07:52:32.454Z,100064.00
2018-06-20T07:54:37.902Z,100056.00
2018-06-20T07:56:42.302Z,100052.00
2018-06-20T07:58:52.171Z,100057.00
2018-06-20T08:01:02.349Z,100057.00
2018-06-20T08:03:18.564Z,100056.00
2018-06-20T08:05:28.399Z,100057.00
2018-06-20T08:07:38.659Z,100055.00
2018-06-20T08:09:48.386Z,100051.00
2018-06-20T08:11:58.008Z,100060.00
2018-06-20T08:15:05.790Z,100052.00
2018-06-20T08:17:15.283Z,100051.00
2018-06-20T08:19:25.031Z,100057.00
2018-06-20T08:21:29.611Z,100058.00
2018-06-20T08:23:34.131Z,100059.00
2018-06-20T08:25:38.581Z,100056.00
2018-06-20T08:27:43.032Z,100058.00
2018-06-20T08:29:48.698Z,100059.00
2018-06-20T08:31:53.284Z,100053.00
2018-06-20T08:33:57.795Z,100054.00
2018-06-20T08:36:02.251Z,100059.00
2018-06-20T08:38:06.719Z,100060.00
2018-06-20T08:40:11.366Z,100049.00
2018-06-20T08:42:15.784Z,100056.00
2018-06-20T08:44:20.232Z,100053.00
2018-06-20T08:46:24.659Z,100046.00
2018-06-20T08:48:29.133Z,100049.00
2018-06-20T08:50:33.586Z,100053.00
2018-06-20T08:52:37.986Z,100042.00
2018-06-20T08:54:42.558Z,100053.00
2018-06-20T08:56:47.068Z,100036.00
2018-06-20T08:58:51.489Z,100047.00
2018-06-20T09:01:00.828Z,100046.00
2018-06-20T09:03:05.271Z,100045.00
2018-06-20T09:05:14.898Z,100044.00
2018-06-20T09:07:24.683Z,100048.00
2018-06-20T09:09:34.446Z,100038.00
2018-06-20T09:11:44.146Z,100034.00
2018-06-20T09:13:54.573Z,100035.00
2018-06-20T09:16:04.375Z,100039.00
2018-06-20T09:18:14.348Z,100048.00
2018-06-20T09:20:19.724Z,100041.00
2018-06-20T09:22:24.371Z,100043.00
2018-06-20T09:24:29.420Z,100040.00
2018-06-20T09:26:34.489Z,100036.00
2018-06-20T09:28:38.915Z,100038.00
2018-06-20T09:30:43.403Z,100037.00
2018-06-20T09:32:47.867Z,100029.00
2018-06-20T09:34:52.318Z,100030.00
2018-06-20T09:36:56.824Z,100022.00
2018-06-20T09:39:01.391Z,100028.00
2018-06-20T09:41:05.831Z,100019.00
2018-06-20T09:43:10.337Z,100025.00
2018-06-20T09:45:14.863Z,100019.00
2018-06-20T09:47:19.400Z,100013.00
2018-06-20T09:49:23.886Z,100020.00
2018-06-20T09:51:29.119Z,100022.00
2018-06-20T09:53:33.561Z,100013.00
2018-06-20T09:55:38.008Z,100014.00
2018-06-20T09:57:42.125Z,100017.00
2018-06-20T09:59:51.971Z,100010.00
2018-06-20T10:02:01.575Z,100008.00
2018-06-20T10:04:12.116Z,100013.00
2018-06-20T10:06:21.724Z,100010.00
2018-06-20T10:08:31.624Z,100013.00
2018-06-20T10:10:41.468Z,100015.00
2018-06-20T10:12:51.711Z,100005.00
2018-06-20T10:14:56.176Z,99999.00
2018-06-20T10:17:00.558Z,100010.00
2018-06-20T10:19:05.022Z,100006.00
2018-06-20T10:21:09.994Z,99999.00
2018-06-20T10:23:14.475Z,100002.00
2018-06-20T10:25:18.986Z,99993.00
2018-06-20T10:27:23.420Z,100002.00
2018-06-20T10:29:27.962Z,99996.00
2018-06-20T10:31:32.464Z,99996.00
2018-06-20T10:33:36.915Z,100001.00
2018-06-20T10:35:41.407Z,99995.00
2018-06-20T10:37:45.838Z,99993.00
2018-06-20T10:39:50.411Z,99993.00
2018-06-20T10:41:54.851Z,99991.00
2018-06-20T10:43:59.331Z,99987.00
2018-06-20T10:46:09.013Z,99995.00
2018-06-20T10:48:16.739Z,99990.00
2018-06-20T10:50:21.277Z,99992.00
2018-06-20T10:52:25.687Z,99978.00
2018-06-20T10:54:30.134Z,99970.00
2018-06-20T10:56:40.192Z,99976.00
2018-06-20T10:58:50.137Z,99976.00
2018-06-20T11:01:00.244Z,99973.00
2018-06-20T11:03:10.113Z,99971.00
2018-06-20T11:05:19.754Z,99967.00
2018-06-20T11:07:29.490Z,99971.00
2018-06-20T11:09:39.122Z,99969.00
2018-06-20T11:11:48.809Z,99965.00
2018-06-20T11:13:54.610Z,99958.00
2018-06-20T11:15:59.506Z,99963.00
2018-06-20T11:18:04.995Z,99959.00
2018-06-20T11:20:15.501Z,99949.00
2018-06-20T11:22:20.077Z,99950.00
2018-06-20T11:24:24.550Z,99956.00
2018-06-20T11:26:31.485Z,99960.00
2018-06-20T11:28:35.939Z,99954.00
2018-06-20T11:30:41.689Z,99957.00
2018-06-20T11:32:46.286Z,99951.00
2018-06-20T11:34:50.757Z,99947.00
2018-06-20T11:36:55.207Z,99936.00
2018-06-20T11:38:59.679Z,99941.00
2018-06-20T11:41:04.370Z,99938.00
2018-06-20T11:43:08.840Z,99944.00
2018-06-20T11:45:14.354Z,99930.00
2018-06-20T11:47:24.168Z,99936.00
2018-06-20T11:49:28.601Z,99923.00
2018-06-20T11:51:33.167Z,99929.00
2018-06-20T11:53:37.752Z,99927.00
2018-06-20T11:55:44.543Z,99924.00
2018-06-20T11:57:49.529Z,99914.00
2018-06-20T11:59:59.361Z,99914.00
2018-06-20T12:02:09.911Z,99910.00
2018-06-20T12:04:19.813Z,99914.00
2018-06-20T12:06:30.183Z,99908.00
2018-06-20T12:08:40.424Z,99906.00
2018-06-20T12:10:50.235Z,99900.00
2018-06-20T12:12:59.921Z,99905.00
2018-06-20T12:15:09.482Z,99898.00
2018-06-20T12:17:13.191Z,99900.00
2018-06-20T12:19:23.632Z,99895.00
2018-06-20T12:21:33.520Z,99892.00
2018-06-20T12:23:43.831Z,99886.00
2018-06-20T12:25:53.790Z,99894.00
2018-06-20T12:28:04.269Z,99889.00
2018-06-20T12:30:14.906Z,99900.00
2018-06-20T12:32:24.488Z,99884.00
2018-06-20T12:34:34.128Z,99891.00
2018-06-20T12:36:43.955Z,99883.00
2018-06-20T12:38:53.543Z,99879.00
2018-06-20T12:41:03.322Z,99884.00
2018-06-20T12:43:13.070Z,99877.00
2018-06-20T12:45:19.094Z,99882.00
2018-06-20T12:47:27.531Z,99882.00
2018-06-20T12:49:35.684Z,99870.00
2018-06-20T12:51:40.188Z,99873.00
2018-06-20T12:53:44.691Z,99882.00
2018-06-20T12:55:49.102Z,99879.00
2018-06-20T12:57:54.427Z,99878.00
2018-06-20T13:00:02.950Z,99869.00
2018-06-20T13:02:07.648Z,99875.00
2018-06-20T13:04:12.290Z,99873.00
2018-06-20T13:06:17.545Z,99868.00
2018-06-20T13:08:22.721Z,99864.00
2018-06-20T13:10:27.831Z,99866.00
2018-06-20T13:12:33.630Z,99863.00
2018-06-20T13:14:38.063Z,99864.00
2018-06-20T13:16:43.114Z,99858.00
2018-06-20T13:18:58.760Z,99863.00
2018-06-20T13:21:03.714Z,99859.00
2018-06-20T13:23:08.374Z,99861.00
2018-06-20T13:25:13.400Z,99856.00
2018-06-20T13:27:23.204Z,99864.00
2018-06-20T13:29:27.785Z,99855.00
2018-06-20T13:31:37.482Z,99853.00
2018-06-20T13:33:47.323Z,99851.00
2018-06-20T13:35:57.559Z,99847.00
2018-06-20T13:38:07.848Z,99841.00
2018-06-20T13:40:18.348Z,99845.00
2018-06-20T13:42:28.115Z,99848.00
2018-06-20T13:44:32.701Z,99825.00
2018-06-20T13:46:42.835Z,99824.00
2018-06-20T13:48:48.039Z,99839.00
2018-06-20T13:50:53.437Z,99838.00
2018-06-20T13:52:58.031Z,99829.00
2018-06-20T13:55:03.027Z,99828.00
2018-06-20T13:57:08.337Z,99828.00
2018-06-20T13:59:12.924Z,99822.00
2018-06-20T14:01:17.467Z,99823.00
2018-06-20T14:03:22.665Z,99817.00
2018-06-20T14:05:28.621Z,99818.00
2018-06-20T14:07:33.767Z,99817.00
2018-06-20T14:09:41.141Z,99811.00
2018-06-20T14:11:46.218Z,99813.00
2018-06-20T14:13:51.179Z,99820.00
2018-06-20T14:15:56.386Z,99818.00
2018-06-20T14:18:01.582Z,99822.00
2018-06-20T14:20:11.827Z,99818.00
2018-06-20T14:22:16.895Z,99819.00
2018-06-20T14:24:21.571Z,99817.00
2018-06-20T14:26:27.142Z,99810.00
2018-06-20T14:28:32.299Z,99808.00
2018-06-20T14:30:41.650Z,99820.00
2018-06-20T14:32:52.614Z,99806.00
2018-06-20T14:35:02.132Z,99803.00
2018-06-20T14:37:11.830Z,99824.00
2018-06-20T14:39:21.560Z,99811.00
2018-06-20T14:41:26.298Z,99811.00
2018-06-20T14:43:36.096Z,99804.00
2018-06-20T14:45:45.810Z,99796.00
2018-06-20T14:47:50.623Z,99801.00
2018-06-20T14:49:54.768Z,99797.00
2018-06-20T14:51:59.174Z,99799.00
2018-06-20T14:54:03.670Z,99792.00
2018-06-20T14:56:08.163Z,99797.00
2018-06-20T14:58:12.612Z,99791.00
2018-06-20T15:00:17.094Z,99797.00
2018-06-20T15:02:21.607Z,99797.00
2018-06-20T15:04:30.314Z,99799.00
2018-06-20T15:06:35.350Z,99789.00
2018-06-20T15:08:39.803Z,99787.00
2018-06-20T15:10:44.242Z,99788.00
2018-06-20T15:12:48.450Z,99789.00
2018-06-20T15:14:53.414Z,99778.00
2018-06-20T15:17:04.233Z,99779.00
2018-06-20T15:19:08.660Z,99787.00
2018-06-20T15:21:12.949Z,99783.00
2018-06-20T15:23:17.556Z,99781.00
2018-06-20T15:25:27.818Z,99783.00
2018-06-20T15:27:37.896Z,99779.00
2018-06-20T15:29:47.682Z,99769.00
2018-06-20T15:31:58.042Z,99765.00
2018-06-20T15:34:08.085Z,99759.00
2018-06-20T15:36:18.153Z,99770.00
2018-06-20T15:38:24.497Z,99764.00
2018-06-20T15:40:29.518Z,99754.00
2018-06-20T15:42:34.033Z,99751.00
2018-06-20T15:44:38.697Z,99745.00
2018-06-20T15:46:43.372Z,99746.00
2018-06-20T15:48:47.890Z,99755.00
2018-06-20T15:50:52.393Z,99742.00
2018-06-20T15:52:57.673Z,99746.00
2018-06-20T15:55:02.639Z,99735.00
2018-06-20T15:57:07.794Z,99737.00
2018-06-20T15:59:12.273Z,99738.00
2018-06-20T16:01:16.677Z,99740.00
2018-06-20T16:03:21.438Z,99732.00
2018-06-20T16:05:26.100Z,99730.00
2018-06-20T16:07:30.679Z,99726.00
2018-06-20T16:09:40.441Z,99718.00
2018-06-20T16:11:45.542Z,99718.00
2018-06-20T16:13:50.254Z,99721.00
2018-06-20T16:15:54.918Z,99714.00
2018-06-20T16:18:00.823Z,99720.00
2018-06-20T16:20:10.746Z,99714.00
2018-06-20T16:23:23.699Z,99712.00
2018-06-20T16:25:34.950Z,99715.00
2018-06-20T16:27:48.388Z,99708.00
2018-06-20T16:29:58.139Z,99708.00
2018-06-20T16:32:02.298Z,99703.00
2018-06-20T16:34:06.758Z,99702.00
2018-06-20T16:36:11.198Z,99708.00
2018-06-20T16:38:16.095Z,99706.00
2018-06-20T16:40:21.270Z,99700.00
2018-06-20T16:42:26.359Z,99705.00
2018-06-20T16:44:31.331Z,99708.00
2018-06-20T16:46:35.849Z,99702.00
2018-06-20T16:48:40.647Z,99713.00
2018-06-20T16:50:45.215Z,99697.00
2018-06-20T16:52:49.652Z,99701.00
2018-06-20T16:54:54.343Z,99701.00
2018-06-20T16:56:58.841Z,99695.00
2018-06-20T16:59:03.506Z,99693.00
2018-06-20T17:01:13.465Z,99685.00
2018-06-20T17:03:17.954Z,99687.00
2018-06-20T17:05:22.389Z,99678.00
2018-06-20T17:07:26.873Z,99676.00
2018-06-20T17:09:31.347Z,99679.00
2018-06-20T17:11:35.820Z,99672.00
2018-06-20T17:13:46.115Z,99673.00
2018-06-20T17:15:55.817Z,99674.00
2018-06-20T17:18:06.486Z,99672.00
2018-06-20T17:20:16.212Z,99681.00
2018-06-20T17:22:26.175Z,99674.00
2018-06-20T17:24:35.957Z,99669.00
2018-06-20T17:26:40.996Z,99666.00
2018-06-20T17:28:45.657Z,99669.00
2018-06-20T17:30:50.142Z,99660.00
2018-06-20T17:32:55.294Z,99670.00
2018-06-20T17:35:01.747Z,99662.00
2018-06-20T17:37:06.623Z,99654.00
2018-06-20T17:39:12.903Z,99663.00
2018-06-20T17:41:17.431Z,99656.00
2018-06-20T17:43:22.698Z,99655.00
2018-06-20T17:45:27.173Z,99648.00
2018-06-20T17:47:31.712Z,99654.00
2018-06-20T17:49:36.607Z,99657.00
2018-06-20T17:51:41.564Z,99655.00
2018-06-20T17:53:46.680Z,99639.00
2018-06-20T17:55:51.115Z,99646.00
2018-06-20T17:57:55.563Z,99639.00
2018-06-20T18:00:00.846Z,99642.00
2018-06-20T18:02:05.570Z,99637.00
2018-06-20T18:04:14.372Z,99633.00
2018-06-20T18:06:24.586Z,99640.00
2018-06-20T18:08:34.113Z,99638.00
2018-06-20T18:10:43.873Z,99640.00
2018-06-20T18:12:54.546Z,99632.00
2018-06-20T18:15:04.192Z,99630.00
2018-06-20T18:17:08.719Z,99631.00
2018-06-20T18:19:13.131Z,99627.00
2018-06-20T18:21:17.769Z,99625.00
2018-06-20T18:23:22.499Z,99620.00
2018-06-20T18:25:27.099Z,99620.00
2018-06-20T18:27:31.739Z,99621.00
2018-06-20T18:29:37.266Z,99615.00
2018-06-20T18:31:42.237Z,99608.00
2018-06-20T18:33:47.616Z,99615.00
2018-06-20T18:35:52.087Z,99604.00
2018-06-20T18:37:56.850Z,99615.00
2018-06-20T18:40:08.228Z,99613.00
2018-06-20T18:42:13.126Z,99613.00
2018-06-20T18:44:17.641Z,99616.00
2018-06-20T18:46:23.695Z,99614.00
2018-06-20T18:48:29.899Z,99612.00
2018-06-20T18:50:34.375Z,99615.00
2018-06-20T18:52:39.566Z,99615.00
2018-06-20T18:54:44.455Z,99617.00
2018-06-20T18:56:49.125Z,99607.00
2018-06-20T18:58:59.051Z,99607.00
2018-06-20T19:01:09.250Z,99605.00
2018-06-20T19:03:19.491Z,99599.00
2018-06-20T19:05:29.434Z,99604.00
2018-06-20T19:07:38.999Z,99611.00
2018-06-20T19:09:44.363Z,99603.00
2018-06-20T19:11:49.009Z,99602.00
2018-06-20T19:13:53.819Z,99602.00
2018-06-20T19:15:58.235Z,99607.00
2018-06-20T19:18:06.752Z,99604.00
2018-06-20T19:20:11.426Z,99603.00
2018-06-20T19:22:16.252Z,99601.00
2018-06-20T19:24:20.679Z,99602.00
2018-06-20T19:26:25.164Z,99601.00
2018-06-20T19:28:29.700Z,99599.00
2018-06-20T19:30:34.181Z,99592.00
2018-06-20T19:32:39.270Z,99603.00
2018-06-20T19:34:43.762Z,99600.00
2018-06-20T19:36:48.192Z,99600.00
2018-06-20T19:38:52.827Z,99610.00
2018-06-20T19:40:57.335Z,99606.00
2018-06-20T19:43:02.279Z,99604.00
2018-06-20T19:45:07.332Z,99609.00
2018-06-20T19:47:13.232Z,99615.00
2018-06-20T19:49:18.351Z,99611.00
2018-06-20T19:51:22.990Z,99615.00
2018-06-20T19:53:27.497Z,99609.00
2018-06-20T19:55:31.597Z,99614.00
2018-06-20T19:57:36.422Z,99619.00
2018-06-20T19:59:42.078Z,99615.00
2018-06-20T20:01:46.580Z,99624.00
2018-06-20T20:03:52.339Z,99628.00
2018-06-20T20:05:56.546Z,99630.00
2018-06-20T20:08:01.363Z,99625.00
2018-06-20T20:10:06.790Z,99630.00
2018-06-20T20:12:11.295Z,99629.00
2018-06-20T20:14:16.230Z,99629.00
2018-06-20T20:16:20.739Z,99624.00
2018-06-20T20:18:29.340Z,99625.00
2018-06-20T20:20:33.978Z,99629.00
2018-06-20T20:22:39.020Z,99634.00
2018-06-20T20:24:43.711Z,99630.00
2018-06-20T20:26:49.472Z,99626.00
2018-06-20T20:28:54.199Z,99630.00
2018-06-20T20:30:59.454Z,99628.00
2018-06-20T20:33:03.999Z,99624.00
2018-06-20T20:35:08.469Z,99628.00
2018-06-20T20:37:14.095Z,99635.00
2018-06-20T20:39:18.540Z,99633.00
2018-06-20T20:41:22.965Z,99634.00
2018-06-20T20:43:27.702Z,99639.00
2018-06-20T20:45:32.722Z,99630.00
2018-06-20T20:47:37.634Z,99637.00
2018-06-20T20:49:42.983Z,99634.00
2018-06-20T20:51:47.915Z,99631.00
2018-06-20T20:53:52.434Z,99630.00
2018-06-20T20:55:57.007Z,99632.00
2018-06-20T20:58:02.524Z,99633.00
2018-06-20T21:00:08.343Z,99627.00
2018-06-20T21:02:13.219Z,99633.00
2018-06-20T21:04:19.329Z,99633.00
2018-06-20T21:06:24.355Z,99626.00
2018-06-20T21:08:29.531Z,99619.00
2018-06-20T21:10:34.387Z,99624.00
2018-06-20T21:12:39.021Z,99622.00
2018-06-20T21:14:43.659Z,99619.00
2018-06-20T21:16:48.293Z,99618.00
2018-06-20T21:18:53.206Z,99614.00
2018-06-20T21:20:57.656Z,99617.00
2018-06-20T21:23:03.502Z,99625.00
2018-06-20T21:25:08.074Z,99613.00
2018-06-20T21:27:12.483Z,99618.00
2018-06-20T21:29:18.750Z,99611.00
2018-06-20T21:31:23.870Z,99614.00
2018-06-20T21:33:28.579Z,99608.00
2018-06-20T21:35:33.418Z,99614.00
2018-06-20T21:37:37.993Z,99607.00
2018-06-20T21:39:45.181Z,99610.00
2018-06-20T21:41:49.561Z,99608.00
2018-06-20T21:43:55.055Z,99609.00
2018-06-20T21:46:01.931Z,99613.00
2018-06-20T21:48:06.503Z,99601.00
2018-06-20T21:50:10.979Z,99604.00
2018-06-20T21:52:15.079Z,99607.00
2018-06-20T21:54:20.467Z,99599.00
2018-06-20T21:56:24.979Z,99601.00
2018-06-20T21:58:29.425Z,99597.00
2018-06-20T22:00:33.927Z,99597.00
2018-06-20T22:02:38.505Z,99595.00
2018-06-20T22:04:44.217Z,99592.00
2018-06-20T22:06:48.624Z,99594.00
2018-06-20T22:08:52.771Z,99598.00
2018-06-20T22:10:57.412Z,99592.00
2018-06-20T22:13:01.837Z,99594.00
2018-06-20T22:15:06.024Z,99582.00
2018-06-20T22:17:10.447Z,99593.00
2018-06-20T22:19:14.881Z,99591.00
2018-06-20T22:21:19.334Z,99586.00
2018-06-20T22:23:23.859Z,99575.00
2018-06-20T22:25:28.438Z,99585.00
2018-06-20T22:27:32.871Z,99575.00
2018-06-20T22:29:37.318Z,99572.00
2018-06-20T22:31:41.743Z,99580.00
2018-06-20T22:33:46.416Z,99571.00
2018-06-20T22:35:50.858Z,99560.00
2018-06-20T22:37:55.315Z,99563.00
2018-06-20T22:40:01.307Z,99563.00
2018-06-20T22:42:08.907Z,99556.00
2018-06-20T22:44:13.955Z,99549.00
2018-06-20T22:46:18.390Z,99553.00
2018-06-20T22:48:23.998Z,99553.00
2018-06-20T22:50:28.466Z,99551.00
2018-06-20T22:52:32.906Z,99551.00
2018-06-20T22:54:37.892Z,99553.00
2018-06-20T22:56:42.354Z,99545.00
2018-06-20T22:58:47.016Z,99548.00
2018-06-20T23:00:51.551Z,99549.00
2018-06-20T23:02:56.022Z,99540.00
2018-06-20T23:05:00.467Z,99538.00
2018-06-20T23:07:04.962Z,99534.00
2018-06-20T23:09:11.032Z,99536.00
2018-06-20T23:11:15.448Z,99529.00
2018-06-20T23:13:19.895Z,99527.00
2018-06-20T23:15:24.351Z,99533.00
2018-06-20T23:17:28.738Z,99535.00
2018-06-20T23:19:33.176Z,99538.00
2018-06-20T23:21:37.727Z,99533.00
2018-06-20T23:23:42.212Z,99531.00
2018-06-20T23:25:53.515Z,99531.00
2018-06-20T23:27:57.991Z,99537.00
2018-06-20T23:30:02.448Z,99531.00
2018-06-20T23:32:06.982Z,99534.00
2018-06-20T23:34:11.890Z,99537.00
2018-06-20T23:36:16.331Z,99534.00
2018-06-20T23:38:20.751Z,99531.00
2018-06-20T23:40:25.129Z,99532.00
2018-06-20T23:42:29.617Z,99532.00
2018-06-20T23:44:34.045Z,99522.00
2018-06-20T23:46:38.550Z,99527.00
2018-06-20T23:48:43.113Z,99520.00
2018-06-20T23:50:47.602Z,99529.00
2018-06-20T23:52:52.062Z,99528.00
2018-06-20T23:54:56.470Z,99518.00
2018-06-20T23:57:00.946Z,99528.00
2018-06-20T23:59:05.381Z,99517.00
